createdAt,value
2023-05-15T00:00:02.122Z,24.90
2023-05-15T00:02:41.539Z,24.90
2023-05-15T00:05:09.678Z,24.90
2023-05-15T00:07:38.606Z,24.90
2023-05-15T00:10:07.428Z,24.90
2023-05-15T00:12:35.396Z,24.90
2023-05-15T00:15:03.181Z,24.90
2023-05-15T00:17:30.982Z,24.90
2023-05-15T00:20:00.461Z,24.90
2023-05-15T00:22:28.367Z,24.90
2023-05-15T00:24:56.165Z,24.90
2023-05-15T00:27:23.977Z,24.90
2023-05-15T00:29:51.898Z,24.90
2023-05-15T00:32:19.775Z,24.90
2023-05-15T00:34:47.808Z,24.90
2023-05-15T00:37:16.959Z,24.90
2023-05-15T00:39:44.706Z,24.90
2023-05-15T00:42:12.988Z,24.90
2023-05-15T00:44:42.290Z,24.90
2023-05-15T00:47:11.741Z,24.90
2023-05-15T00:49:40.891Z,24.90
2023-05-15T00:52:09.116Z,24.90
2023-05-15T00:54:38.292Z,24.90
2023-05-15T00:57:07.448Z,24.90
2023-05-15T00:59:39.844Z,24.90
2023-05-15T01:02:07.990Z,24.90
2023-05-15T01:04:35.799Z,24.90
2023-05-15T01:07:03.725Z,24.90
2023-05-15T01:09:33.223Z,24.90
2023-05-15T01:12:05.429Z,24.90
2023-05-15T01:14:33.221Z,24.90
2023-05-15T01:17:01.074Z,24.90
2023-05-15T01:19:29.027Z,24.90
2023-05-15T01:22:35.813Z,24.80
2023-05-15T01:25:45.656Z,24.80
2023-05-15T01:28:20.232Z,24.80
2023-05-15T01:30:50.508Z,24.80
2023-05-15T01:33:24.040Z,24.80
2023-05-15T01:35:56.741Z,24.80
2023-05-15T01:38:34.355Z,24.80
2023-05-15T01:41:06.951Z,24.80
2023-05-15T01:43:40.130Z,24.80
2023-05-15T01:46:10.312Z,24.80
2023-05-15T01:48:38.565Z,24.80
2023-05-15T01:51:08.637Z,24.80
2023-05-15T01:53:36.881Z,24.80
2023-05-15T01:56:08.040Z,24.80
2023-05-15T01:58:38.763Z,24.80
2023-05-15T02:01:10.086Z,24.80
2023-05-15T02:03:38.819Z,24.80
2023-05-15T02:06:07.937Z,24.80
2023-05-15T02:08:36.464Z,24.80
2023-05-15T02:11:05.530Z,24.80
2023-05-15T02:13:34.031Z,24.80
2023-05-15T02:16:03.306Z,24.80
2023-05-15T02:18:31.195Z,24.80
2023-05-15T02:21:01.012Z,24.80
2023-05-15T02:23:28.792Z,24.80
2023-05-15T02:26:09.432Z,24.80
2023-05-15T02:28:45.078Z,24.80
2023-05-15T02:31:24.507Z,24.80
2023-05-15T02:33:59.526Z,24.80
2023-05-15T02:36:31.595Z,24.80
2023-05-15T02:39:00.601Z,24.80
2023-05-15T02:41:29.038Z,24.80
2023-05-15T02:43:59.354Z,24.80
2023-05-15T02:46:29.331Z,24.80
2023-05-15T02:48:57.558Z,24.80
2023-05-15T02:51:25.466Z,24.80
2023-05-15T02:53:53.394Z,24.80
2023-05-15T02:56:21.386Z,24.80
2023-05-15T02:58:49.658Z,24.80
2023-05-15T03:01:17.517Z,24.80
2023-05-15T03:03:47.289Z,24.80
2023-05-15T03:06:15.480Z,24.80
2023-05-15T03:08:43.310Z,24.80
2023-05-15T03:11:11.149Z,24.80
2023-05-15T03:13:38.976Z,24.80
2023-05-15T03:16:07.365Z,24.80
2023-05-15T03:18:35.369Z,24.80
2023-05-15T03:21:04.940Z,24.80
2023-05-15T03:23:32.779Z,24.80
2023-05-15T03:26:00.564Z,24.80
2023-05-15T03:28:28.524Z,24.80
2023-05-15T03:30:56.336Z,24.80
2023-05-15T03:33:24.190Z,24.80
2023-05-15T03:35:52.463Z,24.80
2023-05-15T03:38:22.131Z,24.80
2023-05-15T03:40:51.234Z,24.80
2023-05-15T03:43:19.348Z,24.80
2023-05-15T03:45:49.983Z,24.80
2023-05-15T03:48:17.857Z,24.80
2023-05-15T03:50:46.617Z,24.80
2023-05-15T03:53:14.480Z,24.80
2023-05-15T03:55:43.632Z,24.80
2023-05-15T03:58:11.411Z,24.80
2023-05-15T04:00:39.192Z,24.80
2023-05-15T04:03:07.024Z,24.80
2023-05-15T04:05:34.994Z,24.80
2023-05-15T04:08:02.869Z,24.80
2023-05-15T04:10:32.255Z,24.80
2023-05-15T04:13:01.358Z,24.80
2023-05-15T04:15:29.412Z,24.80
2023-05-15T04:17:57.244Z,24.70
2023-05-15T04:20:26.062Z,24.70
2023-05-15T04:22:54.407Z,24.80
2023-05-15T04:25:22.728Z,24.70
2023-05-15T04:27:50.809Z,24.70
2023-05-15T04:30:20.009Z,24.70
2023-05-15T04:32:47.833Z,24.70
2023-05-15T04:35:15.752Z,24.80
2023-05-15T04:37:45.495Z,24.70
2023-05-15T04:40:16.098Z,24.70
2023-05-15T04:42:43.921Z,24.70
2023-05-15T04:45:11.901Z,24.70
2023-05-15T04:47:41.087Z,24.70
2023-05-15T04:50:09.654Z,24.70
2023-05-15T04:52:37.501Z,24.70
2023-05-15T04:55:06.200Z,24.70
2023-05-15T04:57:34.044Z,24.70
2023-05-15T05:00:01.808Z,24.70
2023-05-15T05:02:29.617Z,24.70
2023-05-15T05:04:58.951Z,24.70
2023-05-15T05:07:26.761Z,24.70
2023-05-15T05:09:54.540Z,24.70
2023-05-15T05:12:22.531Z,24.70
2023-05-15T05:14:50.323Z,24.70
2023-05-15T05:17:18.347Z,24.70
2023-05-15T05:19:46.143Z,24.70
2023-05-15T05:22:15.260Z,24.70
2023-05-15T05:24:43.083Z,24.80
2023-05-15T05:27:10.941Z,24.80
2023-05-15T05:29:39.867Z,24.80
2023-05-15T05:32:08.586Z,24.80
2023-05-15T05:34:36.453Z,24.90
2023-05-15T05:37:04.347Z,24.90
2023-05-15T05:39:33.460Z,24.90
2023-05-15T05:42:01.243Z,24.90
2023-05-15T05:44:29.019Z,24.90
2023-05-15T05:46:56.833Z,24.90
2023-05-15T05:49:24.649Z,24.90
2023-05-15T05:51:52.603Z,24.90
2023-05-15T05:54:20.455Z,24.90
2023-05-15T05:56:49.889Z,24.90
2023-05-15T05:59:17.692Z,24.90
2023-05-15T06:01:45.546Z,24.90
2023-05-15T06:04:13.392Z,24.90
2023-05-15T06:06:41.253Z,24.90
2023-05-15T06:09:09.341Z,24.90
2023-05-15T06:11:37.147Z,24.90
2023-05-15T06:14:08.283Z,24.90
2023-05-15T06:16:36.284Z,24.90
2023-05-15T06:19:04.313Z,24.90
2023-05-15T06:21:32.215Z,24.90
2023-05-15T06:24:00.287Z,24.90
2023-05-15T06:26:28.245Z,24.90
2023-05-15T06:28:56.068Z,24.80
2023-05-15T06:31:25.553Z,24.60
2023-05-15T06:33:53.466Z,24.40
2023-05-15T06:36:21.287Z,24.10
2023-05-15T06:38:49.069Z,23.90
2023-05-15T06:41:16.839Z,23.60
2023-05-15T06:43:44.584Z,23.40
2023-05-15T06:46:12.446Z,23.20
2023-05-15T06:48:41.637Z,23.00
2023-05-15T06:51:09.482Z,22.90
2023-05-15T06:53:37.372Z,23.00
2023-05-15T06:56:05.250Z,23.10
2023-05-15T06:58:33.008Z,23.20
2023-05-15T07:01:01.400Z,23.30
2023-05-15T07:03:29.226Z,23.40
2023-05-15T07:05:58.486Z,23.50
2023-05-15T07:08:26.831Z,23.60
2023-05-15T07:10:54.670Z,23.70
2023-05-15T07:13:22.612Z,23.80
2023-05-15T07:15:50.467Z,23.90
2023-05-15T07:18:18.723Z,23.90
2023-05-15T07:20:46.534Z,24.00
2023-05-15T07:23:15.985Z,24.00
2023-05-15T07:25:45.305Z,24.10
2023-05-15T07:28:13.966Z,24.10
2023-05-15T07:30:41.940Z,24.10
2023-05-15T07:33:09.730Z,24.20
2023-05-15T07:35:37.685Z,24.20
2023-05-15T07:38:05.685Z,24.30
2023-05-15T07:40:34.839Z,24.30
2023-05-15T07:43:02.876Z,24.30
2023-05-15T07:45:30.770Z,24.40
2023-05-15T07:47:58.847Z,24.40
2023-05-15T07:50:27.003Z,24.50
2023-05-15T07:52:54.817Z,24.50
2023-05-15T07:55:22.872Z,24.50
2023-05-15T07:57:54.049Z,24.60
2023-05-15T08:00:22.786Z,24.60
2023-05-15T08:02:50.788Z,24.60
2023-05-15T08:05:18.802Z,24.60
2023-05-15T08:07:46.721Z,24.60
2023-05-15T08:10:14.498Z,24.60
2023-05-15T08:12:46.151Z,24.60
2023-05-15T08:15:15.710Z,24.70
2023-05-15T08:17:43.789Z,24.70
2023-05-15T08:20:12.575Z,24.70
2023-05-15T08:22:40.355Z,24.70
2023-05-15T08:25:09.099Z,24.80
2023-05-15T08:27:36.876Z,24.80
2023-05-15T08:30:05.226Z,24.80
2023-05-15T08:32:34.380Z,24.80
2023-05-15T08:35:02.249Z,24.80
2023-05-15T08:37:30.131Z,24.80
2023-05-15T08:39:57.881Z,24.80
2023-05-15T08:42:34.321Z,24.80
2023-05-15T08:45:02.472Z,24.80
2023-05-15T08:47:30.396Z,24.80
2023-05-15T08:50:06.933Z,24.80
2023-05-15T08:52:35.447Z,24.90
2023-05-15T08:55:04.197Z,24.80
2023-05-15T08:57:33.928Z,24.90
2023-05-15T09:00:02.007Z,24.90
2023-05-15T09:02:30.157Z,24.90
2023-05-15T09:04:57.945Z,24.90
2023-05-15T09:07:27.251Z,24.90
2023-05-15T09:09:56.636Z,24.90
2023-05-15T09:12:26.346Z,25.00
2023-05-15T09:15:09.792Z,25.00
2023-05-15T09:17:37.924Z,25.00
2023-05-15T09:20:08.063Z,25.00
2023-05-15T09:22:37.704Z,25.00
2023-05-15T09:25:06.634Z,25.00
2023-05-15T09:27:43.775Z,25.00
2023-05-15T09:30:12.770Z,25.00
2023-05-15T09:32:41.155Z,25.00
2023-05-15T09:35:30.447Z,25.00
2023-05-15T09:38:04.416Z,25.00
2023-05-15T09:40:33.336Z,25.00
2023-05-15T09:43:01.328Z,25.00
2023-05-15T09:45:30.109Z,25.00
2023-05-15T09:48:00.653Z,25.00
2023-05-15T09:50:35.539Z,25.00
2023-05-15T09:53:06.294Z,25.00
2023-05-15T09:55:36.112Z,25.00
2023-05-15T09:58:08.643Z,25.00
2023-05-15T10:00:47.253Z,25.00
2023-05-15T10:03:18.115Z,25.10
2023-05-15T10:05:46.017Z,25.10
2023-05-15T10:08:16.067Z,25.10
2023-05-15T10:10:44.478Z,25.10
2023-05-15T10:13:12.543Z,25.10
2023-05-15T10:15:41.158Z,25.10
2023-05-15T10:18:09.276Z,25.10
2023-05-15T10:20:38.461Z,25.10
2023-05-15T10:23:10.435Z,25.10
2023-05-15T10:25:44.654Z,25.10
2023-05-15T10:28:12.983Z,25.10
2023-05-15T10:30:40.802Z,25.10
2023-05-15T10:33:09.382Z,25.10
2023-05-15T10:35:39.052Z,25.20
2023-05-15T10:38:07.727Z,25.20
2023-05-15T10:40:38.762Z,25.20
2023-05-15T10:43:10.270Z,25.20
2023-05-15T10:45:38.662Z,25.20
2023-05-15T10:48:08.269Z,25.20
2023-05-15T10:50:38.551Z,25.20
2023-05-15T10:53:06.978Z,25.20
2023-05-15T10:55:34.779Z,25.20
2023-05-15T10:58:02.582Z,25.20
2023-05-15T11:00:32.256Z,25.20
2023-05-15T11:03:00.988Z,25.20
2023-05-15T11:05:31.099Z,25.20
2023-05-15T11:08:27.313Z,25.20
2023-05-15T11:10:55.419Z,25.20
2023-05-15T11:13:23.246Z,25.20
2023-05-15T11:15:52.488Z,25.20
2023-05-15T11:18:21.401Z,25.20
2023-05-15T11:21:08.912Z,25.20
2023-05-15T11:23:41.778Z,25.30
2023-05-15T11:26:09.966Z,25.30
2023-05-15T11:28:44.767Z,25.30
2023-05-15T11:31:14.102Z,25.30
2023-05-15T11:33:42.111Z,25.30
2023-05-15T11:36:11.247Z,25.30
2023-05-15T11:38:40.821Z,25.30
2023-05-15T11:41:20.102Z,25.20
2023-05-15T11:43:49.805Z,25.10
2023-05-15T11:46:19.066Z,25.00
2023-05-15T11:48:48.573Z,25.00
2023-05-15T11:51:19.280Z,24.90
2023-05-15T11:53:47.657Z,24.90
2023-05-15T11:56:20.806Z,24.90
2023-05-15T11:58:52.248Z,25.00
2023-05-15T12:01:21.383Z,25.00
2023-05-15T12:03:50.190Z,25.00
2023-05-15T12:06:18.747Z,25.00
2023-05-15T12:08:52.232Z,25.00
2023-05-15T12:11:23.021Z,25.00
2023-05-15T12:13:53.584Z,25.10
2023-05-15T12:16:26.856Z,25.10
2023-05-15T12:18:55.236Z,25.10
2023-05-15T12:21:23.120Z,25.10
2023-05-15T12:24:03.412Z,25.10
2023-05-15T12:26:32.219Z,25.10
2023-05-15T12:29:00.305Z,25.20
2023-05-15T12:31:29.794Z,25.20
2023-05-15T12:33:57.775Z,25.20
2023-05-15T12:36:29.647Z,25.20
2023-05-15T12:38:57.683Z,25.20
2023-05-15T12:41:29.037Z,25.20
2023-05-15T12:43:56.832Z,25.20
2023-05-15T12:46:26.213Z,25.30
2023-05-15T12:48:55.597Z,25.30
2023-05-15T12:51:23.748Z,25.30
2023-05-15T12:53:53.725Z,25.30
2023-05-15T12:56:21.556Z,25.30
2023-05-15T12:58:49.461Z,25.30
2023-05-15T13:01:17.496Z,25.30
2023-05-15T13:03:46.158Z,25.30
2023-05-15T13:06:16.968Z,25.30
2023-05-15T13:08:45.874Z,25.30
2023-05-15T13:11:15.495Z,25.30
2023-05-15T13:13:45.017Z,25.30
2023-05-15T13:16:20.649Z,25.30
2023-05-15T13:18:48.820Z,25.40
2023-05-15T13:21:18.316Z,25.30
2023-05-15T13:23:46.172Z,25.40
2023-05-15T13:26:13.965Z,25.40
2023-05-15T13:28:41.764Z,25.40
2023-05-15T13:31:09.852Z,25.40
2023-05-15T13:33:37.724Z,25.40
2023-05-15T13:36:06.223Z,25.40
2023-05-15T13:38:35.477Z,25.40
2023-05-15T13:41:03.455Z,25.40
2023-05-15T13:43:31.301Z,25.40
2023-05-15T13:45:59.072Z,25.40
2023-05-15T13:48:26.919Z,25.40
2023-05-15T13:50:54.749Z,25.40
2023-05-15T13:53:22.561Z,25.40
2023-05-15T13:55:51.868Z,25.50
2023-05-15T13:58:19.968Z,25.50
2023-05-15T14:00:49.384Z,25.50
2023-05-15T14:03:17.560Z,25.50
2023-05-15T14:05:45.481Z,25.50
2023-05-15T14:08:13.285Z,25.50
2023-05-15T14:10:41.339Z,25.50
2023-05-15T14:13:10.493Z,25.60
2023-05-15T14:15:38.286Z,25.60
2023-05-15T14:18:06.102Z,25.60
2023-05-15T14:20:33.996Z,25.60
2023-05-15T14:23:01.749Z,25.60
2023-05-15T14:25:29.555Z,25.60
2023-05-15T14:27:57.319Z,25.60
2023-05-15T14:30:26.574Z,25.60
2023-05-15T14:32:54.701Z,25.70
2023-05-15T14:35:22.855Z,25.70
2023-05-15T14:37:50.648Z,25.70
2023-05-15T14:40:18.578Z,25.70
2023-05-15T14:42:46.356Z,25.80
2023-05-15T14:45:14.270Z,25.80
2023-05-15T14:47:43.454Z,25.80
2023-05-15T14:50:11.488Z,25.80
2023-05-15T14:52:39.376Z,25.90
2023-05-15T14:55:09.722Z,25.90
2023-05-15T14:57:37.993Z,25.90
2023-05-15T15:00:07.377Z,25.90
2023-05-15T15:02:35.313Z,26.00
2023-05-15T15:05:05.584Z,26.00
2023-05-15T15:08:01.521Z,26.10
2023-05-15T15:10:29.752Z,26.10
2023-05-15T15:12:57.894Z,26.10
2023-05-15T15:15:26.236Z,26.10
2023-05-15T15:17:54.512Z,26.20
2023-05-15T15:20:25.289Z,26.10
2023-05-15T15:22:53.542Z,26.20
2023-05-15T15:25:22.244Z,26.20
2023-05-15T15:27:50.553Z,26.20
2023-05-15T15:30:18.471Z,26.20
2023-05-15T15:32:46.372Z,26.10
2023-05-15T15:35:14.880Z,26.10
2023-05-15T15:37:44.063Z,26.10
2023-05-15T15:40:12.221Z,26.00
2023-05-15T15:42:40.022Z,26.00
2023-05-15T15:45:08.823Z,26.00
2023-05-15T15:47:36.710Z,26.00
2023-05-15T15:50:04.816Z,26.10
2023-05-15T15:52:32.575Z,26.10
2023-05-15T15:55:01.721Z,26.10
2023-05-15T15:57:31.193Z,26.00
2023-05-15T15:59:59.058Z,26.00
2023-05-15T16:02:28.201Z,26.00
2023-05-15T16:04:56.108Z,26.00
2023-05-15T16:07:23.883Z,25.90
2023-05-15T16:10:00.438Z,26.00
2023-05-15T16:12:39.883Z,25.90
2023-05-15T16:15:21.433Z,25.90
2023-05-15T16:17:53.033Z,25.90
2023-05-15T16:20:21.819Z,25.90
2023-05-15T16:22:50.037Z,25.80
2023-05-15T16:25:17.952Z,25.80
2023-05-15T16:27:47.101Z,25.80
2023-05-15T16:30:15.452Z,25.80
2023-05-15T16:32:43.394Z,25.80
2023-05-15T16:35:11.182Z,25.80
2023-05-15T16:37:39.008Z,25.80
2023-05-15T16:40:08.359Z,25.80
2023-05-15T16:42:37.807Z,25.80
2023-05-15T16:45:08.771Z,25.70
2023-05-15T16:47:38.395Z,25.70
2023-05-15T16:50:07.289Z,25.70
2023-05-15T16:52:35.085Z,25.70
2023-05-15T16:55:03.288Z,25.70
2023-05-15T16:57:31.316Z,25.70
2023-05-15T16:59:59.085Z,25.80
2023-05-15T17:02:28.417Z,25.90
2023-05-15T17:04:56.250Z,25.90
2023-05-15T17:07:24.029Z,26.00
2023-05-15T17:09:51.810Z,26.00
2023-05-15T17:12:19.656Z,26.00
2023-05-15T17:14:48.471Z,26.00
2023-05-15T17:17:16.279Z,26.00
2023-05-15T17:19:45.516Z,25.90
2023-05-15T17:22:13.266Z,25.90
2023-05-15T17:24:50.861Z,25.90
2023-05-15T17:27:20.394Z,25.90
2023-05-15T17:29:48.613Z,25.90
2023-05-15T17:32:17.359Z,25.80
2023-05-15T17:34:47.102Z,25.80
2023-05-15T17:37:15.382Z,25.80
2023-05-15T17:39:43.328Z,25.80
2023-05-15T17:42:11.152Z,25.80
2023-05-15T17:44:39.133Z,25.80
2023-05-15T17:47:07.681Z,25.70
2023-05-15T17:49:35.498Z,25.70
2023-05-15T17:52:04.893Z,25.70
2023-05-15T17:54:32.779Z,25.70
2023-05-15T17:57:00.622Z,25.70
2023-05-15T17:59:29.071Z,25.70
2023-05-15T18:01:56.971Z,25.70
2023-05-15T18:04:25.038Z,25.60
2023-05-15T18:06:52.989Z,25.70
2023-05-15T18:09:24.256Z,25.70
2023-05-15T18:11:52.574Z,25.60
2023-05-15T18:14:20.377Z,25.60
2023-05-15T18:16:48.147Z,25.60
2023-05-15T18:19:16.005Z,25.60
2023-05-15T18:21:43.928Z,25.60
2023-05-15T18:24:11.701Z,25.60
2023-05-15T18:26:40.961Z,25.60
2023-05-15T18:29:08.744Z,25.60
2023-05-15T18:31:37.199Z,25.50
2023-05-15T18:34:05.209Z,25.60
2023-05-15T18:36:32.989Z,25.50
2023-05-15T18:39:02.307Z,25.50
2023-05-15T18:41:30.333Z,25.50
2023-05-15T18:43:59.520Z,25.50
2023-05-15T18:46:28.344Z,25.50
2023-05-15T18:48:56.319Z,25.50
2023-05-15T18:51:24.492Z,25.50
2023-05-15T18:53:52.303Z,25.50
2023-05-15T18:56:20.105Z,25.50
2023-05-15T18:58:48.248Z,25.50
2023-05-15T19:01:17.528Z,25.50
2023-05-15T19:03:45.441Z,25.50
2023-05-15T19:06:19.457Z,25.50
2023-05-15T19:08:47.917Z,25.50
2023-05-15T19:11:15.981Z,25.50
2023-05-15T19:13:43.778Z,25.50
2023-05-15T19:16:12.230Z,25.50
2023-05-15T19:18:41.601Z,25.50
2023-05-15T19:21:09.458Z,25.50
2023-05-15T19:23:37.244Z,25.50
2023-05-15T19:26:05.030Z,25.40
2023-05-15T19:28:32.788Z,25.40
2023-05-15T19:31:00.572Z,25.40
2023-05-15T19:33:28.331Z,25.40
2023-05-15T19:35:57.441Z,25.40
2023-05-15T19:38:25.404Z,25.40
2023-05-15T19:40:53.162Z,25.40
2023-05-15T19:43:20.974Z,25.40
2023-05-15T19:45:48.779Z,25.40
2023-05-15T19:48:16.607Z,25.40
2023-05-15T19:50:46.026Z,25.40
2023-05-15T19:53:15.204Z,25.40
2023-05-15T19:55:42.985Z,25.40
2023-05-15T19:58:10.902Z,25.40
2023-05-15T20:00:38.687Z,25.40
2023-05-15T20:03:06.591Z,25.40
2023-05-15T20:05:34.550Z,25.30
2023-05-15T20:08:02.407Z,25.40
2023-05-15T20:10:31.957Z,25.30
2023-05-15T20:12:59.803Z,25.30
2023-05-15T20:15:29.166Z,25.30
2023-05-15T20:17:57.039Z,25.30
2023-05-15T20:20:25.114Z,25.30
2023-05-15T20:22:53.147Z,25.30
2023-05-15T20:25:23.465Z,25.30
2023-05-15T20:27:56.350Z,25.30
2023-05-15T20:30:24.547Z,25.30
2023-05-15T20:32:52.690Z,25.30
2023-05-15T20:35:20.729Z,25.30
2023-05-15T20:37:48.524Z,25.30
2023-05-15T20:40:16.506Z,25.30
2023-05-15T20:42:44.292Z,25.30
2023-05-15T20:45:13.874Z,25.30
2023-05-15T20:47:41.718Z,25.30
2023-05-15T20:50:10.360Z,25.30
2023-05-15T20:52:38.274Z,25.30
2023-05-15T20:55:13.454Z,25.30
2023-05-15T20:57:41.243Z,25.30
2023-05-15T21:00:10.537Z,25.30
2023-05-15T21:02:39.969Z,25.20
2023-05-15T21:05:09.253Z,25.20
2023-05-15T21:07:37.474Z,25.20
2023-05-15T21:10:06.000Z,25.20
2023-05-15T21:12:34.122Z,25.20
2023-05-15T21:15:02.255Z,25.20
2023-05-15T21:17:30.106Z,25.20
2023-05-15T21:20:00.965Z,25.20
2023-05-15T21:22:28.730Z,25.20
2023-05-15T21:24:56.517Z,25.20
2023-05-15T21:27:24.307Z,25.20
2023-05-15T21:29:52.199Z,25.20
2023-05-15T21:32:20.039Z,25.20
2023-05-15T21:34:47.789Z,25.20
2023-05-15T21:37:17.020Z,25.20
2023-05-15T21:39:44.829Z,25.20
2023-05-15T21:42:12.616Z,25.20
2023-05-15T21:44:40.410Z,25.20
2023-05-15T21:47:08.211Z,25.20
2023-05-15T21:49:35.996Z,25.20
2023-05-15T21:52:03.855Z,25.10
2023-05-15T21:54:32.954Z,25.10
2023-05-15T21:57:00.885Z,25.10
2023-05-15T21:59:28.677Z,25.10
2023-05-15T22:01:56.501Z,25.10
2023-05-15T22:04:24.369Z,25.10
2023-05-15T22:06:52.196Z,25.10
2023-05-15T22:09:19.956Z,25.10
2023-05-15T22:11:49.093Z,25.10
2023-05-15T22:14:16.958Z,25.10
2023-05-15T22:16:44.903Z,25.10
2023-05-15T22:19:25.078Z,25.10
2023-05-15T22:21:59.978Z,25.10
2023-05-15T22:24:27.776Z,25.10
2023-05-15T22:26:56.879Z,25.10
2023-05-15T22:29:24.696Z,25.10
2023-05-15T22:31:52.563Z,25.10
2023-05-15T22:34:20.533Z,25.10
2023-05-15T22:36:48.267Z,25.10
2023-05-15T22:39:16.044Z,25.10
2023-05-15T22:41:43.808Z,25.10
2023-05-15T22:44:12.966Z,25.10
2023-05-15T22:46:41.024Z,25.10
2023-05-15T22:49:09.943Z,25.10
2023-05-15T22:51:38.468Z,25.10
2023-05-15T22:54:06.312Z,25.10
2023-05-15T22:56:34.111Z,25.10
2023-05-15T22:59:01.888Z,25.10
2023-05-15T23:01:32.091Z,25.10
2023-05-15T23:03:59.928Z,25.10
2023-05-15T23:06:27.790Z,25.00
2023-05-15T23:08:55.822Z,25.00
2023-05-15T23:11:24.461Z,25.00
2023-05-15T23:13:52.247Z,25.00
2023-05-15T23:16:20.155Z,25.00
2023-05-15T23:18:49.454Z,25.00
2023-05-15T23:21:17.259Z,25.00
2023-05-15T23:23:45.873Z,25.00
2023-05-15T23:26:13.711Z,25.00
2023-05-15T23:28:41.818Z,25.00
2023-05-15T23:31:09.684Z,25.00
2023-05-15T23:33:38.018Z,25.00
2023-05-15T23:36:07.688Z,25.00
2023-05-15T23:38:35.535Z,25.00
2023-05-15T23:41:03.572Z,25.00
2023-05-15T23:43:32.088Z,25.00
2023-05-15T23:45:59.902Z,25.00
2023-05-15T23:48:27.968Z,25.00
2023-05-15T23:50:55.829Z,25.00
2023-05-15T23:53:24.973Z,25.00
2023-05-15T23:55:52.868Z,25.00
2023-05-15T23:58:21.341Z,25.00
